Smithville, MS

1:06 PM CST on February 06, 2016 (GMT -0600)
Amory | | Change Station
CLOSE
Current Station
Personal Weather Station
Location: Amory, MS
Elevation: 233 ft
Nearby Weather Stations
Active Advisory: Flood Warning

Elev 233 ft 33.98 °N, 88.49 °W | Updated 5 seconds ago

Partly Cloudy
Partly Cloudy
52.6 °F
Feels Like 52.6 °F
N
8.0
Wind Variable Wind from NE
Gusts 10.0 mph

Today
High -- | Low -- °F
--% Chance of Precip.
Yesterday
High -- | Low -- °F
Precip. -- in
Pressure 30.34 in
Visibility 7.0 miles
Clouds Clear
Dew Point 22 °F
Humidity 30%
Rainfall 0.00 in
Snow Depth Not available.
6:47 AM 5:28 PM
Waning Crescent, 4% visible
METAR KM40 061855Z AUTO 02004KT 7SM CLR 14/06 A3034 RMK AO2
Pressure 30.34 in
Visibility 7.0 miles
Clouds Clear
Dew Point 22 °F
Humidity 30%
Rainfall 0.00 in
Snow Depth Not available.
6:47 AM 5:28 PM
Waning Crescent, 4% visible
METAR KM40 061855Z AUTO 02004KT 7SM CLR 14/06 A3034 RMK AO2

10-Day Weather Forecast

Almanac

Astronomy

Feb. 06, 2016 Rise Set
Actual Time
Civil Twilight
Nautical Twilight
Astronomical Twilight
Moon
Length of Visible Light
Length of Day
Tomorrow will be .
, % of the Moon is Illuminated

Today's Extremes

State Highs State Lows

Community

WunderPhotos

Upload Photos

1,891,033 photos uploaded!

WunderBlog® & News

Nearby

Air Quality

  Air Quality AQ Index Pollutant
Not available.

Snow Depth

Station Depth Elevation

Earthquake Activity

City Distance Mag. Time & Date
Minimum magnitude displayed is 2.5.

Coastal Water Temperatures

Place Temperature

Stations

Nearby Weather Stations

Station Location Temp. Windchill Dew Point Humidity Wind Precip. Elev Updated Type
                   

Watches & Warnings

Flood Warning
Issued: 12:29 PM CST Feb. 6, 2016 – National Weather Service

The Flood Warning continues for
the Buttahatchie river near Aberdeen
* until Sunday February 07.
* At 11 am Saturday the stage was 14.9 feet.
* Minor flooding is occurring and minor flooding is forecast.
* Flood stage is 13.0 feet.
* At 15.0 feet... water is covering a portion of airbase Road located
on the West Bank of the river. Low lying farm land is flooded


Lat... Lon 3409 8829 3409 8821 3373 8826 3365 8843
      3370 8844 3375 8839